Time;durP1;ratioP1;P1;durP2;ratioP2;P2;SDS_P1;SDS_P2;PMS_P1;PMS_P2;Temp;Humidity;BMP_temperature;BMP_pressure;BME280_temperature;BME280_humidity;BME280_pressure;Samples;Min_cycle;Max_cycle;Signal;HPM_P1;HPM_P2
2023/07/27 00:01:43;;;;;;;1.80;1.70;;;;;;;13.57;100.00;96401.03;4954865;28;101955;-75
2023/07/27 00:04:10;;;;;;;2.20;1.77;;;;;;;13.74;100.00;96395.41;4971098;28;105049;-75
2023/07/27 00:06:37;;;;;;;2.70;1.70;;;;;;;13.87;100.00;96398.34;4970648;28;105330;-75
2023/07/27 00:09:04;;;;;;;2.53;1.80;;;;;;;14.11;100.00;96395.88;4954535;28;102156;-75
2023/07/27 00:11:31;;;;;;;2.37;1.80;;;;;;;13.93;100.00;96394.56;4954704;28;105628;-75
2023/07/27 00:13:59;;;;;;;2.33;1.90;;;;;;;13.71;100.00;96393.28;4970411;28;105249;-75
2023/07/27 00:16:26;;;;;;;3.50;1.90;;;;;;;13.27;100.00;96379.69;4954626;28;102156;-74
2023/07/27 00:18:53;;;;;;;2.53;1.80;;;;;;;13.49;100.00;96387.41;4973544;28;103766;-75
2023/07/27 00:21:21;;;;;;;2.20;1.70;;;;;;;13.58;100.00;96386.59;4970831;28;101915;-74
2023/07/27 00:23:48;;;;;;;2.23;1.70;;;;;;;13.51;100.00;96388.75;4970810;28;104022;-75
2023/07/27 00:26:15;;;;;;;2.33;1.93;;;;;;;13.39;100.00;96377.53;4953751;28;105701;-75
2023/07/27 00:28:41;;;;;;;3.17;1.73;;;;;;;13.66;100.00;96387.94;4954429;28;101950;-75
2023/07/27 00:31:10;;;;;;;2.60;2.10;;;;;;;13.57;100.00;96379.66;4954519;28;105207;-74
2023/07/27 00:33:37;;;;;;;4.10;2.00;;;;;;;13.73;100.00;96385.81;4970163;28;105687;-73
2023/07/27 00:36:04;;;;;;;2.43;1.63;;;;;;;13.73;100.00;96383.91;4954412;28;102181;-73
2023/07/27 00:38:31;;;;;;;4.13;1.90;;;;;;;13.69;100.00;96382.06;4970520;28;105531;-73
2023/07/27 00:40:58;;;;;;;2.50;1.63;;;;;;;13.64;100.00;96384.75;4972737;28;105525;-76
2023/07/27 00:43:25;;;;;;;3.53;2.00;;;;;;;13.01;100.00;96377.25;4953977;28;105700;-76
2023/07/27 00:45:52;;;;;;;1.70;1.60;;;;;;;13.05;100.00;96384.47;4970032;28;105344;-76
2023/07/27 00:48:21;;;;;;;1.80;1.70;;;;;;;13.13;100.00;96383.16;4954239;28;102280;-76
2023/07/27 00:50:48;;;;;;;2.03;1.83;;;;;;;13.29;100.00;96382.88;4953311;28;105326;-76
2023/07/27 00:53:16;;;;;;;3.60;2.20;;;;;;;13.37;100.00;96384.22;4969708;28;105136;-75
2023/07/27 00:55:44;;;;;;;3.03;2.10;;;;;;;13.57;100.00;96386.88;4970357;28;102002;-75
2023/07/27 00:58:12;;;;;;;1.83;1.73;;;;;;;13.64;100.00;96387.41;4970299;28;105601;-74
2023/07/27 01:00:41;;;;;;;3.00;2.30;;;;;;;13.22;100.00;96384.22;4969747;28;105165;-74
2023/07/27 01:03:08;;;;;;;2.17;1.87;;;;;;;12.95;100.00;96376.44;4957473;28;101932;-74
2023/07/27 01:05:36;;;;;;;1.90;1.77;;;;;;;13.08;100.00;96380.47;4969503;28;105613;-74
2023/07/27 01:08:05;;;;;;;2.13;1.93;;;;;;;13.20;100.00;96381.00;4970267;28;101911;-73
2023/07/27 01:10:46;;;;;;;2.00;1.80;;;;;;;13.21;100.00;96375.41;4953927;28;104828;-74
2023/07/27 01:13:24;;;;;;;3.23;1.70;;;;;;;13.35;100.00;96378.34;4969395;28;105838;-74
2023/07/27 01:15:57;;;;;;;2.73;1.90;;;;;;;13.22;100.00;96370.84;4954006;28;102245;-74
2023/07/27 01:18:28;;;;;;;2.00;1.80;;;;;;;13.30;100.00;96370.34;4953584;28;105367;-74
2023/07/27 01:21:08;;;;;;;1.90;1.70;;;;;;;12.76;100.00;96367.31;4970726;28;103116;-74
2023/07/27 01:24:01;;;;;;;4.10;2.03;;;;;;;13.52;100.00;96363.63;4969938;28;101987;-74
2023/07/27 01:26:49;;;;;;;2.57;1.80;;;;;;;12.93;100.00;96367.06;4956596;28;104897;-80
2023/07/27 01:29:45;;;;;;;3.67;2.00;;;;;;;13.23;100.00;96372.47;4969809;28;101879;-84
2023/07/27 01:32:16;;;;;;;2.40;2.03;;;;;;;13.26;100.00;96371.94;4969864;28;104960;-81
2023/07/27 01:34:47;;;;;;;3.10;2.30;;;;;;;13.31;100.00;96367.38;4952786;28;103874;-75
2023/07/27 01:37:17;;;;;;;2.30;1.97;;;;;;;13.22;100.00;96357.50;4969631;28;102158;-75
2023/07/27 01:39:49;;;;;;;2.00;1.90;;;;;;;13.54;100.00;96363.38;4953488;28;105737;-75
2023/07/27 01:42:17;;;;;;;6.43;2.07;;;;;;;13.08;100.00;96357.25;4969065;28;105805;-75
2023/07/27 01:44:45;;;;;;;3.53;2.10;;;;;;;13.11;100.00;96361.25;4969681;28;102093;-75
2023/07/27 01:47:15;;;;;;;6.53;2.10;;;;;;;13.23;100.00;96367.94;4969598;28;105391;-75
2023/07/27 01:49:44;;;;;;;2.90;2.03;;;;;;;13.42;100.00;96360.97;4955445;28;102450;-75
2023/07/27 01:52:13;;;;;;;3.47;2.20;;;;;;;13.19;100.00;96361.50;4969391;28;105084;-74
2023/07/27 01:54:41;;;;;;;2.87;1.90;;;;;;;13.17;100.00;96363.66;4968865;28;105222;-78
2023/07/27 01:57:10;;;;;;;4.07;2.53;;;;;;;13.34;100.00;96361.50;4952975;28;101939;-73
2023/07/27 01:59:39;;;;;;;4.70;2.53;;;;;;;13.24;100.00;96358.06;4953050;28;105336;-81
2023/07/27 02:02:06;;;;;;;2.77;2.10;;;;;;;13.57;100.00;96360.16;4968746;28;105419;-80
2023/07/27 02:04:35;;;;;;;4.23;2.50;;;;;;;13.53;100.00;96356.44;4968883;28;102146;-85
2023/07/27 02:07:02;;;;;;;3.77;2.13;;;;;;;13.40;100.00;96360.44;4952912;28;105796;-84
2023/07/27 02:09:29;;;;;;;3.07;2.33;;;;;;;13.70;100.00;96351.59;4955816;28;105088;-77
2023/07/27 02:12:02;;;;;;;3.03;2.03;;;;;;;13.49;100.00;96347.34;4953001;28;105027;-77
2023/07/27 02:14:39;;;;;;;3.23;2.17;;;;;;;13.40;100.00;96348.97;4968597;28;105747;-77
2023/07/27 02:17:13;;;;;;;3.77;2.23;;;;;;;13.56;100.00;96346.00;4952787;28;101928;-77
2023/07/27 02:19:46;;;;;;;3.20;2.17;;;;;;;13.65;100.00;96341.72;4969603;28;101895;-79
2023/07/27 02:22:13;;;;;;;2.70;2.13;;;;;;;13.44;100.00;96339.34;4968632;28;105769;-77
2023/07/27 02:24:41;;;;;;;2.33;2.10;;;;;;;13.24;100.00;96336.69;4968963;28;102224;-77
2023/07/27 02:27:08;;;;;;;2.37;2.17;;;;;;;13.10;100.00;96340.97;4952638;28;105888;-78
2023/07/27 02:29:35;;;;;;;2.90;1.90;;;;;;;13.38;100.00;96338.56;4952206;28;105539;-82
2023/07/27 02:32:02;;;;;;;2.80;2.10;;;;;;;13.48;100.00;96345.75;4956129;28;102446;-81
2023/07/27 02:34:29;;;;;;;2.50;2.30;;;;;;;13.29;100.00;96332.13;4951773;28;105198;-81
2023/07/27 02:36:57;;;;;;;4.27;2.37;;;;;;;13.15;100.00;96340.97;4970096;28;101828;-81
2023/07/27 02:39:25;;;;;;;2.93;2.30;;;;;;;13.30;100.00;96340.97;4952404;28;105322;-80
2023/07/27 02:41:52;;;;;;;2.60;2.40;;;;;;;12.98;100.00;96337.75;4951999;28;105781;-80
2023/07/27 02:44:20;;;;;;;3.30;2.30;;;;;;;13.06;100.00;96337.22;4968695;28;101988;-81
2023/07/27 02:46:48;;;;;;;4.00;2.47;;;;;;;13.33;100.00;96340.41;4968852;28;105266;-80
2023/07/27 02:49:15;;;;;;;2.50;2.30;;;;;;;13.26;100.00;96335.38;4952090;28;105568;-87
2023/07/27 02:51:45;;;;;;;4.00;2.00;;;;;;;12.55;100.00;96328.34;4952598;28;102079;-87
2023/07/27 02:54:14;;;;;;;2.43;2.23;;;;;;;12.01;100.00;96329.75;4971753;28;104887;-86
2023/07/27 02:56:41;;;;;;;3.53;2.20;;;;;;;12.19;100.00;96328.47;4952579;28;102277;-87
2023/07/27 02:59:09;;;;;;;5.57;3.30;;;;;;;12.43;100.00;96327.75;4968836;28;105219;-86
2023/07/27 03:01:42;;;;;;;3.90;2.47;;;;;;;12.50;100.00;96324.84;4951607;28;105612;-84
2023/07/27 03:04:14;;;;;;;4.43;2.50;;;;;;;12.45;100.00;96322.16;4951841;28;101825;-84
2023/07/27 03:06:43;;;;;;;2.90;2.23;;;;;;;12.11;100.00;96326.34;4952147;28;103674;-85
2023/07/27 03:09:10;;;;;;;3.00;2.40;;;;;;;12.74;100.00;96336.63;4951833;28;105505;-85
2023/07/27 03:11:39;;;;;;;3.27;2.67;;;;;;;12.97;100.00;96341.50;4968606;28;102364;-84
2023/07/27 03:14:06;;;;;;;5.50;3.07;;;;;;;12.95;100.00;96338.25;4952245;28;105425;-84
2023/07/27 03:16:33;;;;;;;4.97;2.70;;;;;;;12.95;100.00;96333.72;4971180;28;105138;-75
2023/07/27 03:19:00;;;;;;;3.17;2.90;;;;;;;12.44;100.00;96326.69;4967966;28;105503;-76
2023/07/27 03:21:27;;;;;;;3.93;2.60;;;;;;;11.72;100.00;96325.09;4967765;28;105165;-76
2023/07/27 03:23:54;;;;;;;2.40;2.20;;;;;;;11.44;100.00;96328.09;4968208;28;101776;-76
2023/07/27 03:26:21;;;;;;;3.20;2.87;;;;;;;12.14;100.00;96328.47;4951764;28;105011;-77
2023/07/27 03:28:50;;;;;;;7.30;2.50;;;;;;;12.36;100.00;96331.72;4967471;28;105379;-77
2023/07/27 03:31:18;;;;;;;3.10;2.90;;;;;;;12.16;100.00;96332.47;4951777;28;101938;-77
2023/07/27 03:33:45;;;;;;;3.07;2.80;;;;;;;12.05;100.00;96324.72;4968208;28;104998;-78
2023/07/27 03:36:13;;;;;;;2.60;2.40;;;;;;;12.59;100.00;96333.94;4968955;28;103037;-78
2023/07/27 03:38:40;;;;;;;3.30;2.60;;;;;;;12.61;100.00;96327.28;4971480;28;101982;-78
2023/07/27 03:41:07;;;;;;;3.30;2.60;;;;;;;12.67;100.00;96320.06;4951043;28;105766;-81
2023/07/27 03:43:35;;;;;;;2.80;2.60;;;;;;;12.16;100.00;96313.03;4951724;28;102235;-83
2023/07/27 03:46:04;;;;;;;3.10;2.80;;;;;;;12.18;100.00;96322.38;4968291;28;105653;-83
2023/07/27 03:48:31;;;;;;;3.63;2.83;;;;;;;12.10;100.00;96324.72;4950942;28;105751;-83
2023/07/27 03:51:00;;;;;;;2.93;2.73;;;;;;;11.90;100.00;96324.63;4967566;28;101982;-83
2023/07/27 03:53:28;;;;;;;5.83;2.63;;;;;;;12.30;100.00;96319.44;4951756;28;105472;-83
2023/07/27 03:55:55;;;;;;;3.17;2.97;;;;;;;12.22;100.00;96311.97;4967649;28;105044;-83
2023/07/27 03:58:22;;;;;;;3.37;3.07;;;;;;;12.23;100.00;96310.91;4971469;28;101893;-81
2023/07/27 04:00:49;;;;;;;2.97;2.70;;;;;;;12.14;100.00;96310.63;4967703;28;104974;-81
2023/07/27 04:03:18;;;;;;;3.77;2.70;;;;;;;11.95;100.00;96300.69;4968864;28;102007;-81
2023/07/27 04:05:46;;;;;;;3.70;2.87;;;;;;;12.32;100.00;96318.13;4952473;28;104802;-80
2023/07/27 04:08:13;;;;;;;3.23;2.77;;;;;;;12.00;100.00;96314.03;4951699;28;105753;-78
2023/07/27 04:10:40;;;;;;;3.33;2.80;;;;;;;12.19;100.00;96318.63;4968610;28;101894;-79
2023/07/27 04:13:07;;;;;;;4.23;2.80;;;;;;;12.08;100.00;96321.50;4952328;28;105234;-79
2023/07/27 04:15:34;;;;;;;4.03;3.10;;;;;;;12.34;100.00;96315.19;4952002;28;105281;-78
2023/07/27 04:18:01;;;;;;;3.67;2.57;;;;;;;11.97;100.00;96303.88;4955329;28;102037;-79
2023/07/27 04:20:29;;;;;;;2.73;2.50;;;;;;;12.41;100.00;96313.06;4974324;28;105604;-79
2023/07/27 04:22:57;;;;;;;5.80;3.23;;;;;;;12.42;100.00;96301.38;4955419;28;101863;-79
2023/07/27 04:25:25;;;;;;;4.03;3.17;;;;;;;12.20;100.00;96300.75;4971806;28;105411;-78
2023/07/27 04:27:55;;;;;;;4.40;3.30;;;;;;;12.30;100.00;96303.44;4971158;28;105411;-78
2023/07/27 04:30:23;;;;;;;3.83;3.07;;;;;;;12.37;100.00;96302.13;4971053;28;102010;-78
2023/07/27 04:32:50;;;;;;;3.37;3.00;;;;;;;12.73;100.00;96306.47;4954493;28;103961;-78
2023/07/27 04:35:17;;;;;;;4.73;3.27;;;;;;;12.52;100.00;96298.69;4970148;28;105212;-78
2023/07/27 04:37:46;;;;;;;3.60;3.30;;;;;;;11.98;100.00;96290.28;4970862;28;102004;-78
2023/07/27 04:40:14;;;;;;;3.10;2.80;;;;;;;11.85;100.00;96295.31;4970702;28;105032;-77
2023/07/27 04:42:42;;;;;;;3.30;2.57;;;;;;;12.29;100.00;96309.84;4957010;28;105450;-78
2023/07/27 04:45:09;;;;;;;4.17;2.80;;;;;;;12.18;100.00;96301.03;4954293;28;105705;-78
2023/07/27 04:47:37;;;;;;;3.47;2.73;;;;;;;13.37;100.00;96312.09;4969994;28;104836;-78
2023/07/27 04:50:04;;;;;;;5.53;3.10;;;;;;;14.55;100.00;96309.28;4970047;28;102068;-78
2023/07/27 04:52:31;;;;;;;4.27;2.90;;;;;;;15.64;100.00;96295.31;4938043;28;104998;-78
2023/07/27 04:55:00;;;;;;;7.63;3.03;;;;;;;15.92;100.00;96286.41;4969839;28;105385;-77
2023/07/27 04:57:27;;;;;;;6.63;2.40;;;;;;;15.85;100.00;96275.22;4953943;28;102023;-78
2023/07/27 04:59:54;;;;;;;4.17;2.13;;;;;;;15.99;100.00;96281.50;4953944;28;105013;-77
2023/07/27 05:02:20;;;;;;;7.00;2.20;;;;;;;16.10;100.00;96280.28;4969713;28;105590;-78
2023/07/27 05:04:49;;;;;;;5.20;1.90;;;;;;;15.95;100.00;96281.28;4973872;28;102337;-78
2023/07/27 05:07:16;;;;;;;4.83;2.17;;;;;;;16.12;100.00;96283.47;4953438;28;105773;-77
2023/07/27 05:09:43;;;;;;;7.80;2.70;;;;;;;16.07;100.00;96286.25;4954033;28;102107;-77
2023/07/27 05:12:11;;;;;;;5.93;2.10;;;;;;;16.23;100.00;96290.31;4970002;28;105206;-77
2023/07/27 05:14:38;;;;;;;4.53;1.80;;;;;;;16.59;100.00;96278.03;4969603;28;104561;-77
2023/07/27 05:17:06;;;;;;;3.20;1.90;;;;;;;16.71;100.00;96278.41;4970098;28;101913;-77
2023/07/27 05:19:33;;;;;;;2.77;1.80;;;;;;;16.65;100.00;96275.00;4970726;28;102773;-77
2023/07/27 05:22:00;;;;;;;2.43;1.53;;;;;;;16.96;100.00;96272.66;4953220;28;104632;-77
2023/07/27 05:24:27;;;;;;;2.43;1.63;;;;;;;17.08;100.00;96279.19;4970096;28;102120;-77
2023/07/27 05:26:54;;;;;;;1.70;1.60;;;;;;;16.98;100.00;96278.53;4972549;28;105534;-77
2023/07/27 05:29:22;;;;;;;1.70;1.60;;;;;;;16.87;100.00;96277.09;4971042;28;101861;-77
2023/07/27 05:31:49;;;;;;;2.57;1.67;;;;;;;17.07;100.00;96269.50;4953608;28;103894;-77
2023/07/27 05:34:16;;;;;;;1.80;1.60;;;;;;;16.61;100.00;96265.13;4969164;28;105582;-77
2023/07/27 05:36:43;;;;;;;2.67;1.60;;;;;;;17.34;100.00;96268.78;4969880;28;102313;-77
2023/07/27 05:39:09;;;;;;;1.60;1.50;;;;;;;17.44;100.00;96263.28;4953334;28;105443;-77
2023/07/27 05:41:36;;;;;;;1.80;1.63;;;;;;;17.50;100.00;96262.09;4968821;28;105765;-77
2023/07/27 05:44:04;;;;;;;1.60;1.50;;;;;;;16.14;100.00;96263.31;4969723;28;101932;-77
2023/07/27 05:46:32;;;;;;;2.00;1.50;;;;;;;16.35;100.00;96264.66;4953428;28;105385;-77
2023/07/27 05:48:59;;;;;;;2.30;1.77;;;;;;;16.73;100.00;96268.19;4956317;28;105223;-77
2023/07/27 05:51:26;;;;;;;2.30;1.60;;;;;;;17.23;100.00;96268.16;4953223;28;105253;-77
2023/07/27 05:53:53;;;;;;;1.53;1.43;;;;;;;17.23;100.00;96267.38;4970306;28;103259;-77
2023/07/27 05:56:20;;;;;;;1.97;1.27;;;;;;;16.19;100.00;96265.16;4970689;28;102019;-77
2023/07/27 05:58:47;;;;;;;1.70;1.60;;;;;;;17.00;100.00;96262.94;4953248;28;104864;-77
2023/07/27 06:01:16;;;;;;;2.03;1.57;;;;;;;16.92;100.00;96263.56;4968787;28;104402;-77
2023/07/27 06:03:44;;;;;;;4.13;1.20;;;;;;;17.43;100.00;96261.69;4969282;28;101910;-77
2023/07/27 06:06:11;;;;;;;2.70;1.37;;;;;;;17.82;100.00;96262.78;4953260;28;105161;-77
2023/07/27 06:08:38;;;;;;;3.00;1.23;;;;;;;17.45;100.00;96254.09;4955915;28;104738;-77
2023/07/27 06:11:08;;;;;;;2.20;1.70;;;;;;;17.69;100.00;96255.53;4952795;28;105273;-77
2023/07/27 06:13:35;;;;;;;1.63;1.53;;;;;;;17.93;100.00;96255.34;4952141;28;105468;-76
2023/07/27 06:16:02;;;;;;;1.83;1.27;;;;;;;17.26;100.00;96253.31;4969298;28;101947;-76
2023/07/27 06:18:29;;;;;;;4.47;1.47;;;;;;;16.65;100.00;96250.84;4968977;28;105596;-76
2023/07/27 06:20:57;;;;;;;1.60;1.50;;;;;;;16.54;100.00;96240.53;4968487;28;104997;-76
2023/07/27 06:23:24;;;;;;;2.63;1.37;;;;;;;16.75;100.00;96244.50;4952703;28;102040;-76
2023/07/27 06:25:51;;;;;;;2.27;1.50;;;;;;;16.45;100.00;96248.44;4952663;28;104906;-76
2023/07/27 06:28:18;;;;;;;1.53;1.43;;;;;;;16.35;100.00;96245.88;4968483;28;105135;-76
2023/07/27 06:30:46;;;;;;;2.17;1.50;;;;;;;17.33;100.00;96240.31;4973825;28;102144;-77
2023/07/27 06:33:14;;;;;;;1.20;1.20;;;;;;;17.70;100.00;96250.94;4952069;28;105710;-77
2023/07/27 06:35:41;;;;;;;1.30;1.20;;;;;;;17.69;100.00;96250.16;4952356;28;102052;-76
2023/07/27 06:38:09;;;;;;;2.10;1.20;;;;;;;18.05;100.00;96250.25;4952490;28;105535;-77
2023/07/27 06:40:36;;;;;;;1.50;1.40;;;;;;;18.10;100.00;96247.47;4950759;28;105474;-76
2023/07/27 06:43:03;;;;;;;1.27;1.20;;;;;;;18.32;100.00;96247.56;4952546;28;102069;-76
2023/07/27 06:45:30;;;;;;;1.33;1.23;;;;;;;18.32;100.00;96242.94;4968790;28;105296;-76
2023/07/27 06:47:57;;;;;;;1.43;1.33;;;;;;;18.26;100.00;96244.13;4969534;28;102972;-76
2023/07/27 06:50:24;;;;;;;1.50;1.40;;;;;;;17.89;100.00;96246.28;4969680;28;101945;-76
2023/07/27 06:52:50;;;;;;;1.20;1.20;;;;;;;18.28;100.00;96235.75;4973089;28;102678;-76
2023/07/27 06:55:19;;;;;;;1.83;1.20;;;;;;;18.16;100.00;96241.66;4968671;28;101931;-76
2023/07/27 06:57:46;;;;;;;1.27;1.10;;;;;;;17.98;100.00;96247.94;4969917;28;102961;-76
2023/07/27 07:00:14;;;;;;;1.57;1.47;;;;;;;17.73;100.00;96247.66;4967794;28;105445;-76
2023/07/27 07:02:41;;;;;;;1.40;1.30;;;;;;;17.41;100.00;96248.53;4952152;28;102019;-76
2023/07/27 07:05:08;;;;;;;1.20;1.10;;;;;;;17.06;100.00;96245.63;4968569;28;105158;-76
2023/07/27 07:07:36;;;;;;;1.90;1.40;;;;;;;17.88;100.00;96237.38;4969155;28;102876;-76
2023/07/27 07:10:03;;;;;;;1.80;1.20;;;;;;;17.67;100.00;96238.09;4968706;28;101937;-76
2023/07/27 07:12:31;;;;;;;1.50;1.40;;;;;;;18.71;100.00;96232.38;4969980;28;102920;-76
2023/07/27 07:14:58;;;;;;;1.27;1.17;;;;;;;18.32;100.00;96231.41;4954788;28;105740;-76
2023/07/27 07:17:25;;;;;;;1.60;1.20;;;;;;;18.26;100.00;96233.34;4969720;28;102606;-76
2023/07/27 07:19:53;;;;;;;2.13;1.30;;;;;;;18.58;100.00;96229.75;4951163;28;104411;-76
2023/07/27 07:22:20;;;;;;;3.23;1.40;;;;;;;18.46;100.00;96226.75;4951955;28;102075;-76
2023/07/27 07:24:47;;;;;;;2.50;1.40;;;;;;;18.39;100.00;96226.38;4968246;28;105426;-76
2023/07/27 07:27:14;;;;;;;1.50;1.40;;;;;;;18.19;100.00;96227.59;4951376;28;105527;-76
2023/07/27 07:29:42;;;;;;;3.73;1.40;;;;;;;18.29;100.00;96226.56;4968390;28;101884;-76
2023/07/27 07:32:09;;;;;;;2.57;1.20;;;;;;;18.77;100.00;96222.28;4951960;28;105324;-76
2023/07/27 07:34:36;;;;;;;2.23;1.30;;;;;;;18.40;100.00;96222.59;4967660;28;105313;-76
2023/07/27 07:37:03;;;;;;;1.70;1.30;;;;;;;18.55;100.00;96211.47;4971600;28;102201;-76
2023/07/27 07:39:30;;;;;;;2.40;1.40;;;;;;;18.18;100.00;96217.94;4968896;28;102742;-76
2023/07/27 07:41:58;;;;;;;1.90;1.30;;;;;;;17.99;100.00;96216.47;4968243;28;102293;-76
2023/07/27 07:44:26;;;;;;;1.47;1.23;;;;;;;18.21;100.00;96219.22;4951647;28;105191;-76
2023/07/27 07:46:54;;;;;;;1.50;1.40;;;;;;;17.65;100.00;96213.41;4967486;28;104231;-76
2023/07/27 07:49:21;;;;;;;2.43;1.47;;;;;;;18.04;100.00;96211.75;4968014;28;102516;-76
2023/07/27 07:51:48;;;;;;;2.33;1.40;;;;;;;18.56;100.00;96213.06;4953648;28;105544;-76
2023/07/27 07:54:15;;;;;;;2.03;1.80;;;;;;;18.78;100.00;96210.38;4970963;28;105373;-76
2023/07/27 07:56:42;;;;;;;1.80;1.60;;;;;;;18.93;100.00;96202.75;4971321;28;101936;-76
2023/07/27 07:59:09;;;;;;;2.23;1.50;;;;;;;18.72;100.00;96195.44;4975576;28;102790;-76
2023/07/27 08:01:36;;;;;;;3.53;1.60;;;;;;;19.14;100.00;96193.03;4971340;28;102083;-76
2023/07/27 08:04:05;;;;;;;2.37;1.60;;;;;;;19.59;100.00;96194.56;4971125;28;105326;-76
2023/07/27 08:06:32;;;;;;;2.77;1.40;;;;;;;19.87;100.00;96178.94;4954181;28;105528;-73
2023/07/27 08:08:59;;;;;;;1.70;1.60;;;;;;;19.66;100.00;96175.22;4971260;28;101967;-85
2023/07/27 08:11:26;;;;;;;3.03;2.00;;;;;;;19.99;100.00;96171.03;4971217;28;105236;-77
2023/07/27 08:13:55;;;;;;;1.87;1.70;;;;;;;20.37;100.00;96170.16;4954223;28;105392;-66
2023/07/27 08:16:22;;;;;;;4.07;2.23;;;;;;;19.97;100.00;96162.44;4954804;28;101967;-65
2023/07/27 08:18:48;;;;;;;4.07;1.97;;;;;;;20.51;100.00;96164.59;4957423;28;105013;-65
2023/07/27 08:21:17;;;;;;;3.23;2.60;;;;;;;20.76;100.00;96155.69;4970878;28;101942;-64
2023/07/27 08:23:43;;;;;;;4.10;1.80;;;;;;;21.10;100.00;96153.72;4970861;28;105245;-64
2023/07/27 08:26:11;;;;;;;4.63;3.57;;;;;;;20.96;100.00;96150.44;4971993;28;101834;-64
2023/07/27 08:28:37;;;;;;;6.07;5.23;;;;;;;20.97;100.00;96140.41;4970764;28;101982;-64
2023/07/27 08:31:05;;;;;;;2.67;2.30;;;;;;;20.79;100.00;96138.81;4970899;28;105321;-64
2023/07/27 08:33:32;;;;;;;2.03;1.90;;;;;;;19.79;100.00;96131.16;4971620;28;102805;-64
2023/07/27 08:36:00;;;;;;;4.37;3.30;;;;;;;20.36;100.00;96130.75;4972183;28;101982;-64
2023/07/27 08:38:29;;;;;;;3.00;2.70;;;;;;;20.78;100.00;96129.13;4954617;28;105583;-64
2023/07/27 08:40:56;;;;;;;1.50;1.40;;;;;;;20.91;100.00;96123.56;4957020;28;105013;-64
2023/07/27 08:43:23;;;;;;;2.23;1.70;;;;;;;20.77;100.00;96124.84;4970615;28;105317;-64
2023/07/27 08:45:50;;;;;;;2.07;1.40;;;;;;;20.16;100.00;96123.28;4971423;28;102963;-64
2023/07/27 08:48:17;;;;;;;1.77;1.67;;;;;;;20.65;100.00;96125.50;4954402;28;101915;-64
2023/07/27 08:50:46;;;;;;;2.57;1.50;;;;;;;20.53;100.00;96125.34;4970065;28;104874;-64
2023/07/27 08:53:14;;;;;;;2.77;1.70;;;;;;;20.89;100.00;96125.81;4953613;28;103802;-64
2023/07/27 08:55:43;;;;;;;3.87;1.73;;;;;;;21.26;100.00;96122.34;4954141;28;101991;-64
2023/07/27 08:58:10;;;;;;;1.70;1.40;;;;;;;21.39;100.00;96126.75;4970271;28;105683;-64
2023/07/27 09:00:39;;;;;;;2.73;1.47;;;;;;;21.64;100.00;96130.47;4971318;28;102719;-64
2023/07/27 09:03:07;;;;;;;1.50;1.40;;;;;;;21.75;97.15;96129.00;4974395;28;101877;-64
2023/07/27 09:05:40;;;;;;;1.50;1.33;;;;;;;21.03;94.27;96121.00;4969579;28;105596;-64
2023/07/27 09:08:08;;;;;;;1.70;1.47;;;;;;;21.92;100.00;96118.06;4954014;28;101858;-64
2023/07/27 09:10:36;;;;;;;1.30;1.20;;;;;;;21.98;88.66;96111.34;4971696;28;102368;-63
2023/07/27 09:13:05;;;;;;;3.93;1.53;;;;;;;22.26;94.48;96107.78;4970935;28;102714;-63
2023/07/27 09:15:34;;;;;;;3.77;1.40;;;;;;;21.69;86.33;96109.44;4971555;28;101982;-63
2023/07/27 09:18:02;;;;;;;5.03;1.53;;;;;;;21.80;94.48;96105.22;4971482;28;101964;-63
2023/07/27 09:20:29;;;;;;;2.27;1.77;;;;;;;22.48;98.33;96103.97;4953127;28;105382;-63
2023/07/27 09:22:57;;;;;;;1.53;1.43;;;;;;;22.81;89.35;96096.63;4953829;28;101875;-63
2023/07/27 09:25:24;;;;;;;2.87;1.53;;;;;;;22.82;91.00;96098.22;4974261;28;102372;-63
2023/07/27 09:27:54;;;;;;;1.60;1.50;;;;;;;22.17;81.42;96093.50;4969937;28;102533;-63
2023/07/27 09:30:24;;;;;;;1.80;1.70;;;;;;;22.31;92.85;96101.38;4971499;28;102669;-63
2023/07/27 09:32:52;;;;;;;1.60;1.50;;;;;;;22.48;92.02;96099.34;4970570;28;102919;-63
2023/07/27 09:35:21;;;;;;;1.60;1.50;;;;;;;22.94;96.15;96106.41;4971376;28;101821;-63
2023/07/27 09:37:51;;;;;;;1.90;1.70;;;;;;;23.03;83.24;96098.94;4953477;28;105671;-63
2023/07/27 09:40:19;;;;;;;1.60;1.50;;;;;;;23.11;85.10;96095.38;4952784;28;105759;-63
2023/07/27 09:42:47;;;;;;;2.70;1.40;;;;;;;23.24;91.63;96097.78;4971070;28;101799;-63
2023/07/27 09:45:15;;;;;;;2.40;1.60;;;;;;;23.55;88.17;96099.97;4971283;28;102821;-63
2023/07/27 09:47:43;;;;;;;3.33;1.57;;;;;;;23.73;67.21;96090.44;4973842;28;102680;-63
2023/07/27 09:50:11;;;;;;;2.63;1.70;;;;;;;23.85;74.08;96098.56;4969093;28;105762;-63
2023/07/27 09:52:39;;;;;;;1.80;1.30;;;;;;;23.87;75.49;96091.66;4970271;28;102484;-63
2023/07/27 09:55:07;;;;;;;1.90;1.47;;;;;;;23.45;64.99;96086.84;4971017;28;102013;-63
2023/07/27 09:57:34;;;;;;;1.40;1.30;;;;;;;23.88;71.88;96084.31;4953417;28;105247;-63
2023/07/27 10:00:04;;;;;;;1.60;1.50;;;;;;;24.23;69.79;96083.50;4952586;28;105445;-63
2023/07/27 10:02:40;;;;;;;1.87;1.50;;;;;;;24.67;68.01;96081.66;4967792;28;101785;-63
2023/07/27 10:05:09;;;;;;;1.47;1.37;;;;;;;24.77;56.35;96081.16;4970778;28;102488;-63
2023/07/27 10:07:36;;;;;;;1.60;1.50;;;;;;;25.01;66.67;96068.22;4970080;28;102661;-63
2023/07/27 10:10:26;;;;;;;1.47;1.37;;;;;;;25.21;62.75;96069.09;4956362;28;101754;-63
2023/07/27 10:12:57;;;;;;;1.70;1.60;;;;;;;24.95;59.02;96058.72;4952388;28;104081;-63
2023/07/27 10:15:27;;;;;;;2.10;1.60;;;;;;;25.09;62.33;96050.13;4970687;28;101693;-63
2023/07/27 10:17:56;;;;;;;1.80;1.50;;;;;;;25.16;59.86;96053.03;4970528;28;102758;-63
2023/07/27 10:20:28;;;;;;;2.23;1.80;;;;;;;25.43;63.47;96057.63;4952168;28;105339;-63
2023/07/27 10:23:10;;;;;;;1.53;1.43;;;;;;;24.82;51.47;96043.63;4970813;28;101712;-63
2023/07/27 10:26:02;;;;;;;2.53;1.63;;;;;;;25.06;60.25;96048.91;4952785;28;105538;-63
2023/07/27 10:28:37;;;;;;;2.33;1.70;;;;;;;24.94;55.16;96045.47;4969933;28;102618;-63
2023/07/27 10:31:21;;;;;;;1.47;1.37;;;;;;;23.84;57.60;96046.19;4973877;28;101754;-63
2023/07/27 10:33:48;;;;;;;1.93;1.60;;;;;;;23.97;63.87;96047.78;4970080;28;101734;-63
2023/07/27 10:36:18;;;;;;;4.00;1.70;;;;;;;23.19;75.08;96045.66;4970520;28;102379;-63
2023/07/27 10:38:53;;;;;;;3.03;2.50;;;;;;;23.14;73.05;96045.84;4970231;28;102477;-63
2023/07/27 10:41:22;;;;;;;3.63;3.20;;;;;;;23.79;76.25;96042.91;4951872;28;105791;-63
2023/07/27 10:44:17;;;;;;;3.20;2.10;;;;;;;23.27;86.75;96039.34;4970148;28;101902;-63
2023/07/27 10:46:47;;;;;;;1.90;1.80;;;;;;;23.20;74.47;96044.53;4970256;28;102329;-63
2023/07/27 10:49:16;;;;;;;2.13;1.93;;;;;;;23.23;74.60;96041.16;4968163;28;105300;-63
2023/07/27 10:51:47;;;;;;;1.50;1.40;;;;;;;23.00;72.99;96034.53;4970085;28;102258;-63
2023/07/27 10:54:15;;;;;;;2.63;2.10;;;;;;;23.84;80.10;96032.63;4972909;28;102590;-63
2023/07/27 10:56:43;;;;;;;2.47;2.27;;;;;;;24.20;82.21;96032.53;4952566;28;101978;-63
2023/07/27 10:59:14;;;;;;;2.37;2.00;;;;;;;23.48;75.13;96024.53;4970016;28;102481;-63
2023/07/27 11:01:42;;;;;;;1.90;1.73;;;;;;;23.82;71.97;96023.22;4969249;28;102667;-63
2023/07/27 11:04:11;;;;;;;1.97;1.77;;;;;;;23.97;62.10;96019.84;4968665;28;101970;-63
2023/07/27 11:06:49;;;;;;;2.67;1.87;;;;;;;24.15;66.83;96012.97;4970018;28;102465;-63
2023/07/27 11:09:17;;;;;;;2.77;1.60;;;;;;;24.09;69.65;96017.84;4969543;28;101700;-63
2023/07/27 11:11:45;;;;;;;1.70;1.60;;;;;;;24.24;64.17;96000.81;4969846;28;101902;-63
2023/07/27 11:14:12;;;;;;;3.50;1.40;;;;;;;23.60;61.82;96004.72;4969879;28;103040;-63
2023/07/27 11:16:39;;;;;;;1.77;1.67;;;;;;;23.31;65.55;96003.03;4954993;28;105445;-63
2023/07/27 11:19:08;;;;;;;3.03;1.80;;;;;;;23.98;63.93;95991.53;4969740;28;102713;-63
2023/07/27 11:21:39;;;;;;;1.77;1.67;;;;;;;23.64;56.31;95979.25;4951441;28;105330;-63
2023/07/27 11:24:09;;;;;;;1.80;1.70;;;;;;;23.60;62.52;95999.28;4970106;28;101921;-63
2023/07/27 11:26:37;;;;;;;1.63;1.53;;;;;;;23.69;61.10;95994.50;4970510;28;105426;-63